createdAt,value
2018-04-30T00:00:55.841Z,0.00
2018-04-30T00:02:47.602Z,0.00
2018-04-30T00:03:47.530Z,0.00
2018-04-30T00:05:39.299Z,0.00
2018-04-30T00:06:39.223Z,0.00
2018-04-30T00:08:31.008Z,0.00
2018-04-30T00:09:30.956Z,0.00
2018-04-30T00:11:22.744Z,0.00
2018-04-30T00:12:22.671Z,0.00
2018-04-30T00:14:14.459Z,0.00
2018-04-30T00:15:14.398Z,0.00
2018-04-30T00:17:06.197Z,0.00
2018-04-30T00:18:06.124Z,0.00
2018-04-30T00:19:57.911Z,0.00
2018-04-30T00:20:57.848Z,0.00
2018-04-30T00:22:49.612Z,0.00
2018-04-30T00:23:49.546Z,0.00
2018-04-30T00:25:41.301Z,0.00
2018-04-30T00:26:41.230Z,0.00
2018-04-30T00:28:33.013Z,0.00
2018-04-30T00:29:32.954Z,0.00
2018-04-30T00:31:24.722Z,0.00
2018-04-30T00:32:24.645Z,0.00
2018-04-30T00:34:16.430Z,0.00
2018-04-30T00:35:16.372Z,0.00
2018-04-30T00:37:08.169Z,0.00
2018-04-30T00:38:08.095Z,0.00
2018-04-30T00:39:59.881Z,0.00
2018-04-30T00:40:59.821Z,0.00
2018-04-30T00:42:51.621Z,0.00
2018-04-30T00:43:51.548Z,0.00
2018-04-30T00:45:43.328Z,0.00
2018-04-30T00:46:43.272Z,0.00
2018-04-30T00:48:35.069Z,0.00
2018-04-30T00:49:35.003Z,0.00
2018-04-30T00:51:26.758Z,0.00
2018-04-30T00:52:26.687Z,0.00
2018-04-30T00:54:18.444Z,0.00
2018-04-30T00:55:18.385Z,0.00
2018-04-30T00:57:10.144Z,0.00
2018-04-30T00:58:10.074Z,0.00
2018-04-30T01:00:01.817Z,0.00
2018-04-30T01:01:01.758Z,0.00
2018-04-30T01:02:53.524Z,0.00
2018-04-30T01:03:53.446Z,0.00
2018-04-30T01:05:45.202Z,0.00
2018-04-30T01:06:45.144Z,0.00
2018-04-30T01:08:36.900Z,0.00
2018-04-30T01:09:36.831Z,0.00
2018-04-30T01:11:28.620Z,0.00
2018-04-30T01:12:28.540Z,0.00
2018-04-30T01:14:20.282Z,0.00
2018-04-30T01:15:20.223Z,0.00
2018-04-30T01:17:11.978Z,0.00
2018-04-30T01:18:11.911Z,0.00
2018-04-30T01:20:03.677Z,0.00
2018-04-30T01:21:03.617Z,0.00
2018-04-30T01:22:55.406Z,0.00
2018-04-30T01:23:55.333Z,0.00
2018-04-30T01:25:47.093Z,0.00
2018-04-30T01:26:47.030Z,0.00
2018-04-30T01:28:38.787Z,0.00
2018-04-30T01:29:38.710Z,0.00
2018-04-30T01:31:30.466Z,0.00
2018-04-30T01:32:30.404Z,0.00
2018-04-30T01:34:22.163Z,0.00
2018-04-30T01:35:22.095Z,0.00
2018-04-30T01:37:13.889Z,0.00
2018-04-30T01:38:13.791Z,0.00
2018-04-30T01:40:05.541Z,0.00
2018-04-30T01:41:05.478Z,0.00
2018-04-30T01:42:57.241Z,0.00
2018-04-30T01:43:57.166Z,0.00
2018-04-30T01:45:48.929Z,0.00
2018-04-30T01:46:48.866Z,0.00
2018-04-30T01:48:40.627Z,0.00
2018-04-30T01:49:40.556Z,0.00
2018-04-30T01:51:32.303Z,0.00
2018-04-30T01:52:32.243Z,0.00
2018-04-30T01:54:24.014Z,0.00
2018-04-30T01:55:23.938Z,0.00
2018-04-30T01:57:15.701Z,0.00
2018-04-30T01:58:15.631Z,0.00
2018-04-30T02:00:07.424Z,0.00
2018-04-30T02:01:07.358Z,0.00
2018-04-30T02:02:59.151Z,0.00
2018-04-30T02:03:59.080Z,0.00
2018-04-30T02:05:50.840Z,0.00
2018-04-30T02:06:50.773Z,0.00
2018-04-30T02:08:42.539Z,0.00
2018-04-30T02:09:42.467Z,0.00
2018-04-30T02:11:34.216Z,0.00
2018-04-30T02:12:34.159Z,0.00
2018-04-30T02:14:25.914Z,0.00
2018-04-30T02:15:25.849Z,0.00
2018-04-30T02:17:17.611Z,0.00
2018-04-30T02:18:17.547Z,0.00
2018-04-30T02:20:09.306Z,0.00
2018-04-30T02:21:09.233Z,0.00
2018-04-30T02:23:00.992Z,0.00
2018-04-30T02:24:00.920Z,0.00
2018-04-30T02:25:52.683Z,0.00
2018-04-30T02:26:52.618Z,0.00
2018-04-30T02:28:44.420Z,0.00
2018-04-30T02:29:44.354Z,0.00
2018-04-30T02:31:36.100Z,0.00
2018-04-30T02:32:36.033Z,0.00
2018-04-30T02:34:27.796Z,0.00
2018-04-30T02:35:27.725Z,0.00
2018-04-30T02:37:19.483Z,0.00
2018-04-30T02:38:19.425Z,0.00
2018-04-30T02:40:11.187Z,0.00
2018-04-30T02:41:11.111Z,0.00
2018-04-30T02:43:02.874Z,0.00
2018-04-30T02:44:02.798Z,0.00
2018-04-30T02:45:54.565Z,0.00
2018-04-30T02:46:54.505Z,0.00
2018-04-30T02:48:46.259Z,0.00
2018-04-30T02:49:46.191Z,0.00
2018-04-30T02:51:37.945Z,0.00
2018-04-30T02:52:37.883Z,0.00
2018-04-30T02:54:29.641Z,0.00
2018-04-30T02:55:29.578Z,0.00
2018-04-30T02:57:21.335Z,0.00
2018-04-30T02:58:21.264Z,0.00
2018-04-30T03:00:13.036Z,0.00
2018-04-30T03:01:12.961Z,0.00
2018-04-30T03:03:04.710Z,0.00
2018-04-30T03:04:04.647Z,4.00
2018-04-30T03:05:56.407Z,0.00
2018-04-30T03:06:56.329Z,0.00
2018-04-30T03:08:48.092Z,0.00
2018-04-30T03:09:48.105Z,4.00
2018-04-30T03:11:39.782Z,4.00
2018-04-30T03:12:39.720Z,4.00
2018-04-30T03:14:31.493Z,8.00
2018-04-30T03:15:31.411Z,8.00
2018-04-30T03:17:23.187Z,12.00
2018-04-30T03:18:23.124Z,12.00
2018-04-30T03:20:14.878Z,16.00
2018-04-30T03:21:14.809Z,16.00
2018-04-30T03:23:06.552Z,20.00
2018-04-30T03:24:06.495Z,24.00
2018-04-30T03:25:58.265Z,28.00
2018-04-30T03:26:58.193Z,32.00
2018-04-30T03:28:49.953Z,36.00
2018-04-30T03:29:49.879Z,44.00
2018-04-30T03:31:41.631Z,52.00
2018-04-30T03:32:41.577Z,56.00
2018-04-30T03:34:33.344Z,68.00
2018-04-30T03:35:33.264Z,72.00
2018-04-30T03:37:25.018Z,88.00
2018-04-30T03:38:24.962Z,96.00
2018-04-30T03:40:16.733Z,112.00
2018-04-30T03:41:16.662Z,120.00
2018-04-30T03:43:08.418Z,136.00
2018-04-30T03:44:08.357Z,144.00
2018-04-30T03:46:00.134Z,168.00
2018-04-30T03:47:00.062Z,180.00
2018-04-30T03:48:51.884Z,204.00
2018-04-30T03:49:51.757Z,216.00
2018-04-30T03:51:43.536Z,244.00
2018-04-30T03:52:43.464Z,256.00
2018-04-30T03:54:35.229Z,284.00
2018-04-30T03:55:35.155Z,304.00
2018-04-30T03:57:26.911Z,332.00
2018-04-30T03:58:26.850Z,352.00
2018-04-30T04:00:18.630Z,380.00
2018-04-30T04:01:18.563Z,396.00
2018-04-30T04:03:10.347Z,424.00
2018-04-30T04:04:10.247Z,440.00
2018-04-30T04:06:02.006Z,468.00
2018-04-30T04:07:01.936Z,488.00
2018-04-30T04:08:53.701Z,516.00
2018-04-30T04:09:53.641Z,536.00
2018-04-30T04:11:45.410Z,568.00
2018-04-30T04:12:45.373Z,592.00
2018-04-30T04:14:37.099Z,640.00
2018-04-30T04:15:37.037Z,676.00
2018-04-30T04:17:28.794Z,728.00
2018-04-30T04:18:28.726Z,756.00
2018-04-30T04:20:20.510Z,804.00
2018-04-30T04:21:20.438Z,828.00
2018-04-30T04:23:12.187Z,868.00
2018-04-30T04:24:12.127Z,892.00
2018-04-30T04:26:03.887Z,940.00
2018-04-30T04:27:03.815Z,968.00
2018-04-30T04:28:55.562Z,1008.00
2018-04-30T04:29:55.501Z,1032.00
2018-04-30T04:31:47.281Z,1072.00
2018-04-30T04:32:47.210Z,1108.00
2018-04-30T04:34:38.960Z,1140.00
2018-04-30T04:35:38.897Z,1164.00
2018-04-30T04:37:30.664Z,1224.00
2018-04-30T04:38:30.593Z,1248.00
2018-04-30T04:40:22.372Z,1288.00
2018-04-30T04:41:22.280Z,1316.00
2018-04-30T04:43:14.045Z,1368.00
2018-04-30T04:44:13.982Z,1388.00
2018-04-30T04:46:05.744Z,1448.00
2018-04-30T04:47:05.668Z,1480.00
2018-04-30T04:48:57.417Z,1540.00
2018-04-30T04:49:57.360Z,1552.00
2018-04-30T04:51:49.129Z,1604.00
2018-04-30T04:52:49.058Z,1628.00
2018-04-30T04:54:40.809Z,1684.00
2018-04-30T04:55:40.747Z,1724.00
2018-04-30T04:57:32.511Z,1852.00
2018-04-30T04:58:32.446Z,1916.00
2018-04-30T05:00:24.190Z,2020.00
2018-04-30T05:01:24.130Z,2092.00
2018-04-30T05:03:15.895Z,2212.00
2018-04-30T05:04:15.812Z,2268.00
2018-04-30T05:06:07.569Z,2396.00
2018-04-30T05:07:07.504Z,2456.00
2018-04-30T05:08:59.265Z,2440.00
2018-04-30T05:09:59.206Z,2672.00
2018-04-30T05:11:50.979Z,3004.00
2018-04-30T05:12:50.904Z,3140.00
2018-04-30T05:14:42.659Z,3192.00
2018-04-30T05:15:42.603Z,3156.00
2018-04-30T05:17:34.356Z,3200.00
2018-04-30T05:18:34.290Z,3224.00
2018-04-30T05:20:26.034Z,3024.00
2018-04-30T05:21:25.980Z,2992.00
2018-04-30T05:23:17.758Z,3032.00
2018-04-30T05:24:17.683Z,3232.00
2018-04-30T05:26:09.431Z,4180.00
2018-04-30T05:27:09.368Z,4440.00
2018-04-30T05:29:01.125Z,4876.00
2018-04-30T05:30:01.058Z,5104.00
2018-04-30T05:31:52.831Z,5712.00
2018-04-30T05:32:52.761Z,6004.00
2018-04-30T05:34:44.505Z,6248.00
2018-04-30T05:35:44.452Z,6444.00
2018-04-30T05:37:36.226Z,6700.00
2018-04-30T05:38:36.154Z,6840.00
2018-04-30T05:40:27.915Z,6952.00
2018-04-30T05:41:27.850Z,6912.00
2018-04-30T05:43:19.639Z,7084.00
2018-04-30T05:44:19.564Z,7140.00
2018-04-30T05:46:11.354Z,7192.00
2018-04-30T05:47:11.291Z,7312.00
2018-04-30T05:49:03.092Z,7368.00
2018-04-30T05:50:03.018Z,7432.00
2018-04-30T05:51:54.812Z,7480.00
2018-04-30T05:52:54.745Z,7484.00
2018-04-30T05:54:46.511Z,7492.00
2018-04-30T05:55:46.456Z,7560.00
2018-04-30T05:57:38.221Z,7444.00
2018-04-30T05:58:38.150Z,7112.00
2018-04-30T06:00:29.941Z,5260.00
2018-04-30T06:01:29.846Z,7296.00
2018-04-30T06:03:21.681Z,2592.00
2018-04-30T06:04:21.553Z,2364.00
2018-04-30T06:06:13.330Z,2356.00
2018-04-30T06:07:13.272Z,2436.00
2018-04-30T06:09:05.137Z,2952.00
2018-04-30T06:10:04.990Z,7464.00
2018-04-30T06:11:56.774Z,3144.00
2018-04-30T06:12:56.718Z,3600.00
2018-04-30T06:14:48.506Z,9372.00
2018-04-30T06:15:48.442Z,9388.00
2018-04-30T06:17:40.243Z,11064.00
2018-04-30T06:18:40.168Z,11476.00
2018-04-30T06:20:31.955Z,11724.00
2018-04-30T06:21:31.894Z,12412.00
2018-04-30T06:23:23.688Z,12720.00
2018-04-30T06:24:23.622Z,11036.00
2018-04-30T06:26:15.405Z,10280.00
2018-04-30T06:27:15.345Z,6400.00
2018-04-30T06:29:07.143Z,11356.00
2018-04-30T06:30:07.081Z,8972.00
2018-04-30T06:31:58.855Z,16192.00
2018-04-30T06:32:58.799Z,16480.00
2018-04-30T06:34:50.597Z,15744.00
2018-04-30T06:35:50.526Z,16224.00
2018-04-30T06:37:42.318Z,17760.00
2018-04-30T06:38:42.251Z,18464.00
2018-04-30T06:40:34.031Z,19296.00
2018-04-30T06:41:33.977Z,13600.00
2018-04-30T06:43:25.768Z,15936.00
2018-04-30T06:44:25.701Z,18592.00
2018-04-30T06:46:17.484Z,19232.00
2018-04-30T06:47:17.431Z,18848.00
2018-04-30T06:49:09.218Z,20256.00
2018-04-30T06:50:09.152Z,17024.00
2018-04-30T06:52:00.930Z,20064.00
2018-04-30T06:53:00.876Z,20096.00
2018-04-30T06:54:52.674Z,18368.00
2018-04-30T06:55:52.608Z,17056.00
2018-04-30T06:57:44.395Z,20352.00
2018-04-30T06:58:44.331Z,18592.00
2018-04-30T07:00:36.112Z,19232.00
2018-04-30T07:01:36.057Z,21152.00
2018-04-30T07:03:27.848Z,18880.00
2018-04-30T07:04:27.783Z,12848.00
2018-04-30T07:06:19.561Z,11128.00
2018-04-30T07:07:19.512Z,15232.00
2018-04-30T07:09:11.415Z,21120.00
2018-04-30T07:10:11.234Z,21760.00
2018-04-30T07:12:03.015Z,19584.00
2018-04-30T07:13:02.956Z,18528.00
2018-04-30T07:14:54.743Z,19872.00
2018-04-30T07:15:54.680Z,19936.00
2018-04-30T07:17:46.458Z,20416.00
2018-04-30T07:18:46.405Z,20608.00
2018-04-30T07:20:38.196Z,19808.00
2018-04-30T07:21:38.133Z,17600.00
2018-04-30T07:23:29.918Z,14720.00
2018-04-30T07:24:29.859Z,18368.00
2018-04-30T07:26:21.634Z,10176.00
2018-04-30T07:27:21.580Z,21568.00
2018-04-30T07:29:13.368Z,15648.00
2018-04-30T07:30:13.305Z,18048.00
2018-04-30T07:32:05.074Z,18816.00
2018-04-30T07:33:05.023Z,18272.00
2018-04-30T07:34:56.801Z,18720.00
2018-04-30T07:35:56.731Z,18720.00
2018-04-30T07:37:48.499Z,19456.00
2018-04-30T07:38:48.444Z,18624.00
2018-04-30T07:40:40.221Z,15136.00
2018-04-30T07:41:40.158Z,13876.00
2018-04-30T07:43:32.052Z,14168.00
2018-04-30T07:44:31.887Z,17536.00
2018-04-30T07:46:23.663Z,26048.00
2018-04-30T07:47:23.612Z,20448.00
2018-04-30T07:49:15.462Z,12764.00
2018-04-30T07:50:15.329Z,11568.00
2018-04-30T07:52:07.108Z,11088.00
2018-04-30T07:53:07.055Z,11836.00
2018-04-30T07:54:58.847Z,11032.00
2018-04-30T07:55:58.781Z,11296.00
2018-04-30T07:57:50.562Z,11872.00
2018-04-30T07:58:50.510Z,12280.00
2018-04-30T08:00:42.292Z,12576.00
2018-04-30T08:01:42.235Z,13460.00
2018-04-30T08:03:34.024Z,21984.00
2018-04-30T08:04:33.958Z,20736.00
2018-04-30T08:06:25.733Z,17920.00
2018-04-30T08:07:25.685Z,20608.00
2018-04-30T08:09:17.475Z,18240.00
2018-04-30T08:10:17.416Z,18464.00
2018-04-30T08:12:09.185Z,34176.00
2018-04-30T08:13:09.135Z,37952.00
2018-04-30T08:15:00.934Z,27200.00
2018-04-30T08:16:00.863Z,25856.00
2018-04-30T08:17:52.633Z,24256.00
2018-04-30T08:18:52.582Z,22976.00
2018-04-30T08:20:44.400Z,20544.00
2018-04-30T08:21:44.315Z,19872.00
2018-04-30T08:23:36.098Z,18784.00
2018-04-30T08:24:36.036Z,16416.00
2018-04-30T08:26:27.818Z,15452.00
2018-04-30T08:27:27.768Z,11892.00
2018-04-30T08:29:19.552Z,13412.00
2018-04-30T08:30:19.491Z,13196.00
2018-04-30T08:32:11.261Z,14252.00
2018-04-30T08:33:11.216Z,14000.00
2018-04-30T08:35:03.005Z,15040.00
2018-04-30T08:36:02.940Z,15040.00
2018-04-30T08:37:54.717Z,14784.00
2018-04-30T08:38:54.666Z,15360.00
2018-04-30T08:40:46.453Z,13852.00
2018-04-30T08:41:46.391Z,13812.00
2018-04-30T08:43:38.174Z,13988.00
2018-04-30T08:44:38.121Z,15040.00
2018-04-30T08:46:29.896Z,13824.00
2018-04-30T08:47:29.842Z,14752.00
2018-04-30T08:49:21.621Z,15008.00
2018-04-30T08:50:21.566Z,14988.00
2018-04-30T08:52:13.423Z,16704.00
2018-04-30T08:53:13.292Z,13788.00
2018-04-30T08:55:05.083Z,14944.00
2018-04-30T08:56:05.025Z,15264.00
2018-04-30T08:57:56.794Z,16064.00
2018-04-30T08:58:56.743Z,16032.00
2018-04-30T09:00:48.525Z,16192.00
2018-04-30T09:01:48.470Z,20288.00
2018-04-30T09:03:40.238Z,15360.00
2018-04-30T09:04:40.193Z,32032.00
2018-04-30T09:06:31.979Z,29152.00
2018-04-30T09:07:31.929Z,16768.00
2018-04-30T09:09:23.698Z,22048.00
2018-04-30T09:10:23.642Z,37376.00
2018-04-30T09:12:15.417Z,28256.00
2018-04-30T09:13:15.372Z,39264.00
2018-04-30T09:15:07.164Z,30816.00
2018-04-30T09:16:07.091Z,40832.00
2018-04-30T09:17:58.866Z,19168.00
2018-04-30T09:18:58.814Z,42528.00
2018-04-30T09:20:50.607Z,41728.00
2018-04-30T09:21:50.551Z,30784.00
2018-04-30T09:23:42.331Z,32224.00
2018-04-30T09:24:42.283Z,25472.00
2018-04-30T09:26:34.063Z,31776.00
2018-04-30T09:27:34.005Z,32288.00
2018-04-30T09:29:25.806Z,19456.00
2018-04-30T09:30:25.734Z,49664.00
2018-04-30T09:32:17.508Z,41216.00
2018-04-30T09:33:17.461Z,34208.00
2018-04-30T09:35:09.282Z,48992.00
2018-04-30T09:36:09.227Z,47936.00
2018-04-30T09:38:01.002Z,28064.00
2018-04-30T09:39:00.955Z,39616.00
2018-04-30T09:40:52.743Z,48448.00
2018-04-30T09:41:52.681Z,43776.00
2018-04-30T09:43:44.484Z,23040.00
2018-04-30T09:44:44.437Z,34272.00
2018-04-30T09:46:36.232Z,24096.00
2018-04-30T09:47:36.178Z,34080.00
2018-04-30T09:49:27.963Z,49120.00
2018-04-30T09:50:27.903Z,16000.00
2018-04-30T09:52:19.673Z,52096.00
2018-04-30T09:53:19.630Z,19552.00
2018-04-30T09:55:11.412Z,30464.00
2018-04-30T09:56:11.360Z,72352.00
2018-04-30T09:58:03.171Z,21280.00
2018-04-30T09:59:03.116Z,14752.00
2018-04-30T10:00:54.909Z,12784.00
2018-04-30T10:01:54.855Z,37408.00
2018-04-30T10:03:46.631Z,11920.00
2018-04-30T10:04:46.586Z,42528.00
2018-04-30T10:06:38.373Z,8992.00
2018-04-30T10:07:38.315Z,10364.00
2018-04-30T10:09:30.106Z,7252.00
2018-04-30T10:10:30.136Z,6376.00
2018-04-30T10:12:21.826Z,5388.00
2018-04-30T10:13:21.772Z,4808.00
2018-04-30T10:15:13.558Z,3956.00
2018-04-30T10:16:13.498Z,3880.00
2018-04-30T10:18:05.278Z,6444.00
2018-04-30T10:19:05.217Z,8984.00
2018-04-30T10:20:57.001Z,5956.00
2018-04-30T10:21:56.941Z,5308.00
2018-04-30T10:23:48.751Z,3980.00
2018-04-30T10:24:48.667Z,4452.00
2018-04-30T10:26:40.438Z,3792.00
2018-04-30T10:27:40.378Z,3948.00
2018-04-30T10:29:32.147Z,3528.00
2018-04-30T10:30:32.105Z,2916.00
2018-04-30T10:32:23.875Z,2736.00
2018-04-30T10:33:23.811Z,2764.00
2018-04-30T10:35:15.599Z,3388.00
2018-04-30T10:36:15.540Z,5168.00
2018-04-30T10:38:07.433Z,5560.00
2018-04-30T10:39:07.277Z,4256.00
2018-04-30T10:40:59.058Z,37888.00
2018-04-30T10:41:58.992Z,19424.00
2018-04-30T10:43:50.779Z,15112.00
2018-04-30T10:44:50.726Z,11964.00
2018-04-30T10:46:42.506Z,7408.00
2018-04-30T10:47:42.440Z,15552.00
2018-04-30T10:49:34.221Z,14164.00
2018-04-30T10:50:34.167Z,25344.00
2018-04-30T10:52:25.952Z,8820.00
2018-04-30T10:53:25.880Z,8256.00
2018-04-30T10:55:17.656Z,15200.00
2018-04-30T10:56:17.589Z,8508.00
2018-04-30T10:58:09.352Z,7780.00
2018-04-30T10:59:09.298Z,21728.00
2018-04-30T11:01:01.072Z,15872.00
2018-04-30T11:02:01.011Z,23040.00
2018-04-30T11:03:52.764Z,34944.00
2018-04-30T11:04:52.713Z,25344.00
2018-04-30T11:06:44.491Z,8280.00
2018-04-30T11:07:44.430Z,7984.00
2018-04-30T11:09:36.194Z,8824.00
2018-04-30T11:10:36.141Z,9936.00
2018-04-30T11:12:27.982Z,11512.00
2018-04-30T11:13:27.863Z,10456.00
2018-04-30T11:15:19.664Z,8576.00
2018-04-30T11:16:19.606Z,9824.00
2018-04-30T11:18:11.392Z,6888.00
2018-04-30T11:19:11.318Z,5384.00
2018-04-30T11:21:03.104Z,4196.00
2018-04-30T11:22:03.040Z,3960.00
2018-04-30T11:23:54.822Z,3428.00
2018-04-30T11:24:54.771Z,3592.00
2018-04-30T11:26:46.569Z,4436.00
2018-04-30T11:27:46.505Z,5312.00
2018-04-30T11:29:38.261Z,5448.00
2018-04-30T11:30:38.212Z,5568.00
2018-04-30T11:32:30.006Z,4760.00
2018-04-30T11:33:29.942Z,3864.00
2018-04-30T11:35:21.738Z,2972.00
2018-04-30T11:36:21.676Z,2400.00
2018-04-30T11:38:13.442Z,1796.00
2018-04-30T11:39:13.391Z,1648.00
2018-04-30T11:41:05.177Z,1688.00
2018-04-30T11:42:05.111Z,1904.00
2018-04-30T11:43:56.897Z,2544.00
2018-04-30T11:44:56.840Z,2476.00
2018-04-30T11:46:48.625Z,2336.00
2018-04-30T11:47:48.562Z,2484.00
2018-04-30T11:49:40.317Z,2928.00
2018-04-30T11:50:40.264Z,2932.00
2018-04-30T11:52:32.038Z,2864.00
2018-04-30T11:53:31.971Z,2864.00
2018-04-30T11:55:23.799Z,2392.00
2018-04-30T11:56:23.733Z,2064.00
2018-04-30T11:58:15.520Z,1672.00
2018-04-30T11:59:15.460Z,1928.00
2018-04-30T12:01:07.255Z,1912.00
2018-04-30T12:02:07.189Z,2116.00
2018-04-30T12:03:58.973Z,2756.00
2018-04-30T12:04:58.967Z,3264.00
2018-04-30T12:06:50.680Z,3736.00
2018-04-30T12:07:50.617Z,4108.00
2018-04-30T12:09:42.371Z,5240.00
2018-04-30T12:10:42.311Z,5072.00
2018-04-30T12:12:34.081Z,3636.00
2018-04-30T12:13:34.020Z,3488.00
2018-04-30T12:15:25.771Z,4076.00
2018-04-30T12:16:25.714Z,3808.00
2018-04-30T12:18:17.484Z,3876.00
2018-04-30T12:19:17.412Z,4524.00
2018-04-30T12:21:09.179Z,4684.00
2018-04-30T12:22:09.139Z,4424.00
2018-04-30T12:24:00.869Z,3960.00
2018-04-30T12:25:00.812Z,3756.00
2018-04-30T12:26:52.579Z,3288.00
2018-04-30T12:27:52.510Z,3156.00
2018-04-30T12:29:44.357Z,3228.00
2018-04-30T12:30:44.207Z,3368.00
2018-04-30T12:32:35.973Z,3956.00
2018-04-30T12:33:35.946Z,4500.00
2018-04-30T12:35:27.695Z,6144.00
2018-04-30T12:36:27.637Z,7116.00
2018-04-30T12:38:19.410Z,7264.00
2018-04-30T12:39:19.339Z,7184.00
2018-04-30T12:41:11.109Z,6208.00
2018-04-30T12:42:11.038Z,5840.00
2018-04-30T12:44:02.810Z,5800.00
2018-04-30T12:45:02.756Z,6100.00
2018-04-30T12:46:54.535Z,6936.00
2018-04-30T12:47:54.460Z,7108.00
2018-04-30T12:49:46.223Z,6520.00
2018-04-30T12:50:46.244Z,6036.00
2018-04-30T12:52:37.932Z,5024.00
2018-04-30T12:53:37.864Z,4364.00
2018-04-30T12:55:29.634Z,4096.00
2018-04-30T12:56:29.577Z,4320.00
2018-04-30T12:58:21.344Z,4136.00
2018-04-30T12:59:21.290Z,4832.00
2018-04-30T13:01:13.054Z,5304.00
2018-04-30T13:02:12.988Z,5060.00
2018-04-30T13:04:04.742Z,5872.00
2018-04-30T13:05:04.687Z,5836.00
2018-04-30T13:06:56.457Z,5916.00
2018-04-30T13:07:56.385Z,5744.00
2018-04-30T13:09:48.147Z,4820.00
2018-04-30T13:10:48.090Z,4180.00
2018-04-30T13:12:39.862Z,3484.00
2018-04-30T13:13:39.793Z,3304.00
2018-04-30T13:15:31.576Z,3000.00
2018-04-30T13:16:31.520Z,2812.00
2018-04-30T13:18:23.314Z,2660.00
2018-04-30T13:19:23.245Z,2596.00
2018-04-30T13:21:15.044Z,2648.00
2018-04-30T13:22:14.969Z,2764.00
2018-04-30T13:24:06.755Z,2736.00
2018-04-30T13:25:06.692Z,2812.00
2018-04-30T13:26:58.497Z,2756.00
2018-04-30T13:27:58.414Z,2708.00
2018-04-30T13:29:50.170Z,3036.00
2018-04-30T13:30:50.119Z,2932.00
2018-04-30T13:32:41.923Z,2736.00
2018-04-30T13:33:41.833Z,2300.00
2018-04-30T13:35:33.583Z,2656.00
2018-04-30T13:36:33.529Z,2472.00
2018-04-30T13:38:25.299Z,2832.00
2018-04-30T13:39:25.230Z,2732.00
2018-04-30T13:41:17.014Z,2648.00
2018-04-30T13:42:16.948Z,2840.00
2018-04-30T13:44:08.736Z,3044.00
2018-04-30T13:45:08.685Z,3028.00
2018-04-30T13:47:00.437Z,3492.00
2018-04-30T13:48:00.368Z,3500.00
2018-04-30T13:49:52.152Z,3308.00
2018-04-30T13:50:52.097Z,3764.00
2018-04-30T13:52:43.862Z,3340.00
2018-04-30T13:53:43.794Z,2948.00
2018-04-30T13:55:35.550Z,2812.00
2018-04-30T13:56:35.501Z,3024.00
2018-04-30T13:58:27.276Z,2972.00
2018-04-30T13:59:27.212Z,3388.00
2018-04-30T14:01:18.994Z,3304.00
2018-04-30T14:02:19.005Z,3608.00
2018-04-30T14:04:10.722Z,2920.00
2018-04-30T14:05:10.654Z,2716.00
2018-04-30T14:07:02.450Z,3212.00
2018-04-30T14:08:02.385Z,2924.00
2018-04-30T14:09:54.146Z,4132.00
2018-04-30T14:10:54.089Z,3912.00
2018-04-30T14:12:45.884Z,4064.00
2018-04-30T14:13:45.812Z,4420.00
2018-04-30T14:15:37.609Z,4380.00
2018-04-30T14:16:37.551Z,4752.00
2018-04-30T14:18:29.347Z,4232.00
2018-04-30T14:19:29.282Z,4264.00
2018-04-30T14:21:21.144Z,5096.00
2018-04-30T14:22:21.004Z,4716.00
2018-04-30T14:24:12.821Z,5260.00
2018-04-30T14:25:12.751Z,4912.00
2018-04-30T14:27:04.520Z,4288.00
2018-04-30T14:28:04.452Z,3800.00
2018-04-30T14:29:56.237Z,2892.00
2018-04-30T14:30:56.183Z,2680.00
2018-04-30T14:32:47.977Z,2468.00
2018-04-30T14:33:47.909Z,2408.00
2018-04-30T14:35:39.689Z,2344.00
2018-04-30T14:36:39.636Z,2312.00
2018-04-30T14:38:31.414Z,2248.00
2018-04-30T14:39:31.346Z,2188.00
2018-04-30T14:41:23.095Z,2108.00
2018-04-30T14:42:23.037Z,2072.00
2018-04-30T14:44:14.818Z,2080.00
2018-04-30T14:45:14.750Z,2148.00
2018-04-30T14:47:06.530Z,2056.00
2018-04-30T14:48:06.447Z,2024.00
2018-04-30T14:49:58.213Z,2188.00
2018-04-30T14:50:58.157Z,1720.00
2018-04-30T14:52:49.953Z,2336.00
2018-04-30T14:53:49.898Z,2008.00
2018-04-30T14:55:41.640Z,2204.00
2018-04-30T14:56:41.646Z,2264.00
2018-04-30T14:58:33.349Z,2204.00
2018-04-30T14:59:33.279Z,2372.00
2018-04-30T15:01:25.030Z,2104.00
2018-04-30T15:02:24.987Z,2004.00
2018-04-30T15:04:16.819Z,1912.00
2018-04-30T15:05:16.670Z,2036.00
2018-04-30T15:07:08.463Z,2176.00
2018-04-30T15:08:08.391Z,2372.00
2018-04-30T15:10:00.145Z,2112.00
2018-04-30T15:11:00.092Z,2452.00
2018-04-30T15:12:51.850Z,1896.00
2018-04-30T15:13:51.784Z,1860.00
2018-04-30T15:15:43.534Z,2244.00
2018-04-30T15:16:43.477Z,2264.00
2018-04-30T15:18:35.258Z,2200.00
2018-04-30T15:19:35.281Z,2120.00
2018-04-30T15:21:26.942Z,2204.00
2018-04-30T15:22:26.882Z,2212.00
2018-04-30T15:24:18.649Z,1772.00
2018-04-30T15:25:18.577Z,1608.00
2018-04-30T15:27:10.360Z,1452.00
2018-04-30T15:28:10.351Z,1544.00
2018-04-30T15:30:02.031Z,1676.00
2018-04-30T15:31:01.973Z,1736.00
2018-04-30T15:32:53.752Z,1968.00
2018-04-30T15:33:53.677Z,1556.00
2018-04-30T15:35:45.505Z,1984.00
2018-04-30T15:36:45.374Z,2176.00
2018-04-30T15:38:37.139Z,2060.00
2018-04-30T15:39:37.071Z,1744.00
2018-04-30T15:41:28.845Z,1884.00
2018-04-30T15:42:28.783Z,2012.00
2018-04-30T15:44:20.553Z,2768.00
2018-04-30T15:45:20.478Z,2360.00
2018-04-30T15:47:12.230Z,2436.00
2018-04-30T15:48:12.171Z,2080.00
2018-04-30T15:50:03.934Z,1816.00
2018-04-30T15:51:03.867Z,1764.00
2018-04-30T15:52:55.660Z,1772.00
2018-04-30T15:53:55.594Z,1844.00
2018-04-30T15:55:47.416Z,1540.00
2018-04-30T15:56:47.315Z,1608.00
2018-04-30T15:58:39.109Z,1752.00
2018-04-30T15:59:39.043Z,1772.00
2018-04-30T16:01:30.948Z,1768.00
2018-04-30T16:02:30.738Z,1912.00
2018-04-30T16:04:22.511Z,1960.00
2018-04-30T16:05:22.440Z,1940.00
2018-04-30T16:07:14.218Z,2088.00
2018-04-30T16:08:14.147Z,2056.00
2018-04-30T16:10:05.918Z,1908.00
2018-04-30T16:11:05.848Z,1856.00
2018-04-30T16:12:57.611Z,1848.00
2018-04-30T16:13:57.554Z,1632.00
2018-04-30T16:15:49.303Z,1736.00
2018-04-30T16:16:49.241Z,2148.00
2018-04-30T16:18:41.021Z,1864.00
2018-04-30T16:19:40.946Z,1728.00
2018-04-30T16:21:32.699Z,1772.00
2018-04-30T16:22:32.639Z,1844.00
2018-04-30T16:24:24.403Z,1996.00
2018-04-30T16:25:24.334Z,1964.00
2018-04-30T16:27:16.160Z,1932.00
2018-04-30T16:28:16.023Z,1956.00
2018-04-30T16:30:07.789Z,1832.00
2018-04-30T16:31:07.722Z,1748.00
2018-04-30T16:32:59.506Z,1600.00
2018-04-30T16:33:59.437Z,1532.00
2018-04-30T16:35:51.194Z,1404.00
2018-04-30T16:36:51.131Z,1424.00
2018-04-30T16:38:42.898Z,1440.00
2018-04-30T16:39:42.882Z,1524.00
2018-04-30T16:41:34.590Z,1516.00
2018-04-30T16:42:34.532Z,1540.00
2018-04-30T16:44:26.302Z,1440.00
2018-04-30T16:45:26.236Z,1428.00
2018-04-30T16:47:18.051Z,1400.00
2018-04-30T16:48:17.939Z,1348.00
2018-04-30T16:50:09.700Z,1320.00
2018-04-30T16:51:09.632Z,1308.00
2018-04-30T16:53:01.454Z,1272.00
2018-04-30T16:54:01.341Z,1268.00
2018-04-30T16:55:53.095Z,1300.00
2018-04-30T16:56:53.033Z,1328.00
2018-04-30T16:58:44.807Z,1256.00
2018-04-30T16:59:44.725Z,1188.00
2018-04-30T17:01:36.475Z,1112.00
2018-04-30T17:02:36.417Z,1084.00
2018-04-30T17:04:28.179Z,1056.00
2018-04-30T17:05:28.111Z,1060.00
2018-04-30T17:07:19.857Z,1092.00
2018-04-30T17:08:19.804Z,1168.00
2018-04-30T17:10:11.566Z,1104.00
2018-04-30T17:11:11.496Z,1040.00
2018-04-30T17:13:03.280Z,984.00
2018-04-30T17:14:03.215Z,964.00
2018-04-30T17:15:54.979Z,968.00
2018-04-30T17:16:54.913Z,956.00
2018-04-30T17:18:46.703Z,976.00
2018-04-30T17:19:46.638Z,1036.00
2018-04-30T17:21:38.392Z,972.00
2018-04-30T17:22:38.334Z,1048.00
2018-04-30T17:24:30.096Z,1008.00
2018-04-30T17:25:30.039Z,980.00
2018-04-30T17:27:21.806Z,996.00
2018-04-30T17:28:21.747Z,1040.00
2018-04-30T17:30:13.539Z,892.00
2018-04-30T17:31:13.469Z,844.00
2018-04-30T17:33:05.222Z,800.00